Time;durP1;ratioP1;P1;durP2;ratioP2;P2;SDS_P1;SDS_P2;PMS_P1;PMS_P2;Temp;Humidity;BMP_temperature;BMP_pressure;BME280_temperature;BME280_humidity;BME280_pressure;Samples;Min_cycle;Max_cycle;Signal;HPM_P1;HPM_P2
2022/08/01 00:00:22;;;;;;;1.70;1.10;;;21.60;99.90;;;;;;4958222;29;20095;-52
2022/08/01 00:02:48;;;;;;;2.28;1.10;;;21.60;99.90;;;;;;4957546;29;20463;-51
2022/08/01 00:05:13;;;;;;;3.20;1.40;;;21.60;99.90;;;;;;4957853;28;20019;-55
2022/08/01 00:07:39;;;;;;;3.13;1.00;;;21.50;99.90;;;;;;4958607;29;20475;-50
2022/08/01 00:10:07;;;;;;;1.52;1.30;;;21.50;99.90;;;;;;4957811;29;20051;-55
2022/08/01 00:12:33;;;;;;;1.40;1.30;;;21.60;99.90;;;;;;4958195;29;20019;-56
2022/08/01 00:14:59;;;;;;;2.45;1.20;;;21.60;99.90;;;;;;4958872;29;20070;-53
2022/08/01 00:17:25;;;;;;;2.30;1.10;;;21.70;99.90;;;;;;4957221;29;20035;-50
2022/08/01 00:19:51;;;;;;;2.65;1.20;;;21.70;99.90;;;;;;4957216;29;20027;-50
2022/08/01 00:22:16;;;;;;;2.15;1.40;;;21.80;99.90;;;;;;4957331;29;20031;-52
2022/08/01 00:24:42;;;;;;;1.15;1.05;;;21.80;99.90;;;;;;4957247;29;20031;-53
2022/08/01 00:27:08;;;;;;;1.92;1.00;;;21.80;99.90;;;;;;4958633;29;20059;-54
2022/08/01 00:29:33;;;;;;;1.55;0.95;;;21.80;99.90;;;;;;4958210;29;20038;-54
2022/08/01 00:31:59;;;;;;;2.17;1.30;;;21.80;99.90;;;;;;4958577;29;20034;-50
2022/08/01 00:34:25;;;;;;;1.45;1.35;;;21.70;99.90;;;;;;4958549;29;20027;-53
2022/08/01 00:36:50;;;;;;;4.82;1.25;;;21.60;99.90;;;;;;4958179;29;20024;-55
2022/08/01 00:39:16;;;;;;;2.00;1.27;;;21.60;99.90;;;;;;4956848;29;20483;-53
2022/08/01 00:41:42;;;;;;;4.63;1.30;;;21.70;99.90;;;;;;4957318;29;20050;-50
2022/08/01 00:44:07;;;;;;;6.50;1.20;;;21.80;99.90;;;;;;4958035;29;20070;-50
2022/08/01 00:46:33;;;;;;;2.80;1.10;;;21.80;99.90;;;;;;4957988;29;20098;-52
2022/08/01 00:48:59;;;;;;;1.80;1.00;;;21.90;99.90;;;;;;4958288;29;20082;-52
2022/08/01 00:51:26;;;;;;;1.45;1.00;;;21.90;99.90;;;;;;4972760;28;20047;-49
2022/08/01 00:53:51;;;;;;;2.58;1.50;;;21.90;99.90;;;;;;4956647;29;20034;-52
2022/08/01 00:56:18;;;;;;;1.58;1.20;;;21.90;99.90;;;;;;4956620;29;20048;-54
2022/08/01 00:58:44;;;;;;;1.35;1.25;;;22.00;99.90;;;;;;4957723;29;20023;-49
2022/08/01 01:01:10;;;;;;;2.30;1.15;;;22.00;99.90;;;;;;4956532;29;20050;-51
2022/08/01 01:03:35;;;;;;;2.55;1.75;;;22.00;99.90;;;;;;4957712;29;20034;-51
2022/08/01 01:06:23;;;;;;;2.60;1.75;;;22.10;99.90;;;;;;4957638;29;20020;-55
2022/08/01 01:09:16;;;;;;;2.15;1.58;;;22.00;99.90;;;;;;4956703;28;20027;-56
2022/08/01 01:11:54;;;;;;;2.90;1.40;;;22.00;99.90;;;;;;4956368;29;20031;-51
2022/08/01 01:14:46;;;;;;;2.95;1.50;;;22.10;99.90;;;;;;4957833;29;20046;-49
2022/08/01 01:17:14;;;;;;;1.80;1.70;;;22.00;99.90;;;;;;4956069;29;20086;-52
2022/08/01 01:19:48;;;;;;;2.55;2.15;;;22.00;99.90;;;;;;4972134;28;20034;-50
2022/08/01 01:22:26;;;;;;;2.28;1.83;;;22.00;99.90;;;;;;4956178;29;20023;-50
2022/08/01 01:25:16;;;;;;;4.45;1.60;;;22.00;99.90;;;;;;4957070;29;20023;-51
2022/08/01 01:27:49;;;;;;;2.55;1.80;;;22.00;99.90;;;;;;4956109;29;20019;-54
2022/08/01 01:30:15;;;;;;;5.32;2.20;;;21.90;99.90;;;;;;4957553;29;20011;-53
2022/08/01 01:32:49;;;;;;;2.92;1.90;;;21.80;99.90;;;;;;4956211;29;20078;-51
2022/08/01 01:35:25;;;;;;;2.58;1.70;;;21.70;99.90;;;;;;4957710;29;20027;-52
2022/08/01 01:37:59;;;;;;;2.38;2.17;;;21.60;99.90;;;;;;4955733;29;20027;-54
2022/08/01 01:40:27;;;;;;;3.58;2.75;;;21.60;99.90;;;;;;4955786;29;20034;-52
2022/08/01 01:42:55;;;;;;;4.35;3.10;;;21.60;99.90;;;;;;4955752;29;20094;-53
2022/08/01 01:45:23;;;;;;;2.40;1.40;;;21.60;99.90;;;;;;4956945;29;20031;-50
2022/08/01 01:47:50;;;;;;;2.78;1.70;;;21.60;99.90;;;;;;4955709;29;20027;-55
2022/08/01 01:50:17;;;;;;;3.53;1.85;;;21.70;99.90;;;;;;4955658;29;20102;-54
2022/08/01 01:52:45;;;;;;;1.90;1.70;;;21.70;99.90;;;;;;4955683;29;20096;-55
2022/08/01 01:55:13;;;;;;;2.67;1.70;;;21.70;99.90;;;;;;4956704;29;20131;-56
2022/08/01 02:01:11;;;;;;;;;;;21.70;99.90;;;;;;4957306;29;20026;-53
2022/08/01 02:03:38;;;;;;;3.15;1.70;;;21.80;99.90;;;;;;4956994;28;20018;-51
2022/08/01 02:06:05;;;;;;;1.80;1.20;;;21.70;99.90;;;;;;4956700;29;20073;-50
2022/08/01 02:08:32;;;;;;;2.47;1.30;;;21.70;99.90;;;;;;4955565;28;20122;-51
2022/08/01 02:13:52;;;;;;;5.20;1.60;;;21.70;99.90;;;;;;4956763;29;20037;-52
2022/08/01 02:16:19;;;;;;;2.00;1.58;;;21.60;99.90;;;;;;4956710;29;20055;-53
2022/08/01 02:18:45;;;;;;;1.92;1.70;;;21.60;99.90;;;;;;4955429;28;20035;-52
2022/08/01 02:21:16;;;;;;;2.78;2.03;;;21.60;99.90;;;;;;4971239;28;20070;-55
2022/08/01 02:23:43;;;;;;;1.30;1.20;;;21.60;99.90;;;;;;4971236;28;20394;-53
2022/08/01 02:26:15;;;;;;;3.53;1.50;;;21.60;99.90;;;;;;4971428;28;20031;-55
2022/08/01 02:28:57;;;;;;;1.63;1.33;;;21.60;99.90;;;;;;4954869;29;20035;-50
2022/08/01 02:31:23;;;;;;;2.33;1.70;;;21.60;99.90;;;;;;4956510;29;20026;-51
2022/08/01 02:34:01;;;;;;;2.38;1.40;;;21.50;99.90;;;;;;4955132;29;20031;-49
2022/08/01 02:36:29;;;;;;;2.20;1.83;;;21.60;99.90;;;;;;4954826;29;20028;-53
2022/08/01 02:38:58;;;;;;;3.13;1.73;;;21.60;99.90;;;;;;4956087;29;20039;-49
2022/08/01 02:41:26;;;;;;;2.70;1.70;;;21.60;99.90;;;;;;4955924;29;20098;-50
2022/08/01 02:43:57;;;;;;;2.22;2.00;;;21.50;99.90;;;;;;4954595;28;20082;-53
2022/08/01 02:46:29;;;;;;;2.35;1.92;;;21.50;99.90;;;;;;4954698;28;20385;-53
2022/08/01 02:48:59;;;;;;;4.82;2.78;;;21.50;99.90;;;;;;4955816;28;20035;-53
2022/08/01 02:51:25;;;;;;;3.42;2.75;;;21.40;99.90;;;;;;4954414;29;20034;-53
2022/08/01 02:53:53;;;;;;;6.75;4.35;;;21.30;99.90;;;;;;4955007;29;20062;-53
2022/08/01 02:56:21;;;;;;;2.40;2.10;;;21.30;99.90;;;;;;4955651;29;20034;-53
2022/08/01 02:58:48;;;;;;;4.75;2.92;;;21.20;99.90;;;;;;4955441;29;20035;-56
2022/08/01 03:01:16;;;;;;;5.45;3.78;;;21.10;99.90;;;;;;4954444;29;20020;-53
2022/08/01 03:03:41;;;;;;;5.07;2.85;;;21.10;99.90;;;;;;4970462;28;20023;-52
2022/08/01 03:06:08;;;;;;;6.43;2.22;;;21.10;99.90;;;;;;4955865;29;20082;-49
2022/08/01 03:08:36;;;;;;;4.40;3.00;;;21.10;99.90;;;;;;4954546;28;20055;-51
2022/08/01 03:11:03;;;;;;;3.22;2.67;;;21.20;99.90;;;;;;4971659;28;20114;-51
2022/08/01 03:13:31;;;;;;;5.28;2.25;;;21.30;99.90;;;;;;4970299;28;20031;-51
2022/08/01 03:15:58;;;;;;;4.60;2.17;;;21.30;99.90;;;;;;4954283;29;20031;-52
2022/08/01 03:18:26;;;;;;;6.03;2.83;;;21.30;99.90;;;;;;4954087;29;20123;-53
2022/08/01 03:20:54;;;;;;;2.92;2.30;;;21.40;99.90;;;;;;4955349;29;20027;-52
2022/08/01 03:23:22;;;;;;;4.80;2.42;;;21.40;99.90;;;;;;4955280;29;20023;-53
2022/08/01 03:25:50;;;;;;;1.88;1.63;;;21.40;99.90;;;;;;4954334;29;20035;-53
2022/08/01 03:28:16;;;;;;;9.80;3.35;;;21.40;99.90;;;;;;4955185;29;20478;-54
2022/08/01 03:30:43;;;;;;;5.28;3.85;;;21.30;99.90;;;;;;4954648;28;20038;-54
2022/08/01 03:33:09;;;;;;;2.22;1.77;;;21.30;99.90;;;;;;4954838;29;20027;-53
2022/08/01 03:35:47;;;;;;;2.42;2.13;;;21.30;99.90;;;;;;4954484;29;20038;-50
2022/08/01 03:38:16;;;;;;;4.35;3.30;;;21.30;99.90;;;;;;4954934;29;20019;-49
2022/08/01 03:41:11;;;;;;;4.38;2.17;;;21.40;99.90;;;;;;4955330;29;20021;-49
2022/08/01 03:43:59;;;;;;;2.95;1.98;;;21.40;99.90;;;;;;4953615;29;20059;-54
2022/08/01 03:46:44;;;;;;;5.32;2.08;;;21.40;99.90;;;;;;4954383;29;20023;-51
2022/08/01 03:49:32;;;;;;;3.30;2.13;;;21.40;99.90;;;;;;4955405;29;20067;-53
2022/08/01 03:52:01;;;;;;;4.00;1.92;;;21.40;99.90;;;;;;4955429;29;20039;-55
2022/08/01 03:54:33;;;;;;;2.17;1.80;;;21.40;99.90;;;;;;4953842;29;20031;-53
2022/08/01 03:57:00;;;;;;;3.20;1.60;;;21.40;99.90;;;;;;4953951;29;20098;-49
2022/08/01 03:59:27;;;;;;;9.23;4.38;;;21.40;99.90;;;;;;4953740;29;20037;-54
2022/08/01 04:01:53;;;;;;;5.10;3.28;;;21.40;99.90;;;;;;4954543;29;20019;-51
2022/08/01 04:04:19;;;;;;;3.97;2.40;;;21.40;99.90;;;;;;4953831;29;20572;-49
2022/08/01 04:06:45;;;;;;;3.15;2.08;;;21.40;99.90;;;;;;4969879;28;20028;-51
2022/08/01 04:09:11;;;;;;;3.13;2.10;;;21.30;99.90;;;;;;4953725;29;20038;-55
2022/08/01 04:11:38;;;;;;;2.88;2.00;;;21.30;99.90;;;;;;4955278;29;20034;-53
2022/08/01 04:14:03;;;;;;;2.75;1.95;;;21.20;99.90;;;;;;4953758;29;20099;-55
2022/08/01 04:16:29;;;;;;;4.07;1.80;;;21.10;99.90;;;;;;4953660;28;20114;-55
2022/08/01 04:18:55;;;;;;;4.18;1.92;;;21.10;99.90;;;;;;4953579;28;20039;-56
2022/08/01 04:21:27;;;;;;;2.83;1.95;;;21.10;99.90;;;;;;4955125;29;20055;-56
2022/08/01 04:23:53;;;;;;;5.53;2.10;;;21.20;99.90;;;;;;4955329;29;20075;-56
2022/08/01 04:26:21;;;;;;;3.78;2.55;;;21.10;99.90;;;;;;4953555;29;20513;-56
2022/08/01 04:28:49;;;;;;;2.97;2.47;;;21.20;99.90;;;;;;4954817;29;20040;-53
2022/08/01 04:31:17;;;;;;;3.00;2.75;;;21.10;99.90;;;;;;4953587;29;20027;-55
2022/08/01 04:33:49;;;;;;;6.20;2.55;;;21.20;99.90;;;;;;4953558;29;20031;-56
2022/08/01 04:36:19;;;;;;;4.20;3.13;;;21.20;99.90;;;;;;4969754;28;20035;-54
2022/08/01 04:38:48;;;;;;;3.25;2.90;;;21.20;99.90;;;;;;4954904;29;20152;-55
2022/08/01 04:41:15;;;;;;;3.25;2.90;;;21.30;99.90;;;;;;4953430;29;20077;-53
2022/08/01 04:43:41;;;;;;;4.63;3.25;;;21.30;99.90;;;;;;4955295;28;20077;-56
2022/08/01 04:46:08;;;;;;;3.17;2.88;;;21.30;99.90;;;;;;4956962;29;20023;-54
2022/08/01 04:48:37;;;;;;;3.20;2.90;;;21.40;99.90;;;;;;4957480;28;20031;-51
2022/08/01 04:51:04;;;;;;;3.95;3.08;;;21.50;99.90;;;;;;4958737;29;20035;-55
2022/08/01 04:53:32;;;;;;;8.85;3.10;;;21.70;99.90;;;;;;4956609;29;20114;-54
2022/08/01 04:55:58;;;;;;;4.90;3.65;;;21.80;99.90;;;;;;4957879;29;20028;-51
2022/08/01 04:58:24;;;;;;;3.38;3.00;;;21.90;99.90;;;;;;4956769;29;20031;-55
2022/08/01 05:00:49;;;;;;;3.33;2.70;;;22.00;99.90;;;;;;4956615;29;20375;-53
2022/08/01 05:03:15;;;;;;;3.10;2.80;;;22.30;99.90;;;;;;4956597;29;20134;-54
2022/08/01 05:05:41;;;;;;;3.28;2.83;;;22.70;99.90;;;;;;4956476;29;20026;-55
2022/08/01 05:08:07;;;;;;;3.42;2.70;;;23.20;99.90;;;;;;4957556;29;20024;-53
2022/08/01 05:10:33;;;;;;;2.95;2.75;;;23.60;99.90;;;;;;4957708;29;20027;-54
2022/08/01 05:12:59;;;;;;;5.43;2.90;;;24.00;99.90;;;;;;4957943;29;20033;-55
2022/08/01 05:15:24;;;;;;;5.43;2.80;;;24.30;99.90;;;;;;4956601;29;20019;-56
2022/08/01 05:17:50;;;;;;;3.40;2.97;;;24.80;99.90;;;;;;4956059;29;20081;-59
2022/08/01 05:20:16;;;;;;;2.53;2.33;;;25.20;99.90;;;;;;4957439;29;20023;-56
2022/08/01 05:22:42;;;;;;;3.35;2.42;;;25.70;99.90;;;;;;4956759;29;20026;-55
2022/08/01 05:25:08;;;;;;;4.90;4.18;;;26.10;99.90;;;;;;4956555;29;20031;-53
2022/08/01 05:27:39;;;;;;;3.35;2.72;;;26.50;99.90;;;;;;4957359;29;20019;-54
2022/08/01 05:30:06;;;;;;;6.35;3.00;;;26.80;99.90;;;;;;4955942;29;20024;-56
2022/08/01 05:32:32;;;;;;;3.25;2.95;;;26.90;99.90;;;;;;4957632;29;20030;-52
2022/08/01 05:34:58;;;;;;;4.88;3.42;;;26.70;99.90;;;;;;4955976;29;20027;-56
2022/08/01 05:37:23;;;;;;;5.28;4.35;;;26.50;99.90;;;;;;4956153;29;20034;-52
2022/08/01 05:39:49;;;;;;;7.88;6.00;;;26.30;99.90;;;;;;4956054;29;20039;-56
2022/08/01 05:42:14;;;;;;;3.75;3.42;;;26.10;99.90;;;;;;4957045;29;20171;-55
2022/08/01 05:44:40;;;;;;;3.88;3.22;;;25.90;99.90;;;;;;4957283;29;20019;-56
2022/08/01 05:47:05;;;;;;;6.40;3.65;;;25.70;99.90;;;;;;4955707;29;20065;-49
2022/08/01 05:49:31;;;;;;;4.40;3.33;;;25.40;99.90;;;;;;4955554;29;20050;-51
2022/08/01 05:51:57;;;;;;;7.40;3.75;;;25.30;99.90;;;;;;4955658;29;20390;-50
2022/08/01 05:54:22;;;;;;;5.32;3.75;;;25.10;99.90;;;;;;4955426;28;20478;-55
2022/08/01 05:56:48;;;;;;;6.95;4.60;;;24.90;99.90;;;;;;4956706;29;20031;-54
2022/08/01 05:59:13;;;;;;;6.30;3.80;;;24.70;99.90;;;;;;4955646;29;20094;-56
2022/08/01 06:01:39;;;;;;;4.00;3.53;;;24.60;99.90;;;;;;4955552;29;20034;-51
2022/08/01 06:04:05;;;;;;;7.93;4.57;;;24.50;99.90;;;;;;4955536;28;20019;-53
2022/08/01 06:06:30;;;;;;;5.35;3.42;;;24.40;99.90;;;;;;4971506;28;20114;-53
2022/08/01 06:08:56;;;;;;;4.80;3.85;;;24.20;99.90;;;;;;4955833;29;20500;-56
2022/08/01 06:11:21;;;;;;;3.92;3.53;;;24.10;99.90;;;;;;4955593;29;20027;-57
2022/08/01 06:13:47;;;;;;;7.93;3.70;;;24.10;99.90;;;;;;4971558;28;20114;-58
2022/08/01 06:16:13;;;;;;;4.78;4.03;;;24.10;99.90;;;;;;4956062;29;20027;-55
2022/08/01 06:18:38;;;;;;;5.35;4.10;;;24.10;99.90;;;;;;4956304;29;20125;-54
2022/08/01 06:21:04;;;;;;;5.13;3.70;;;24.00;99.90;;;;;;4955159;29;20027;-57
2022/08/01 06:23:29;;;;;;;8.77;5.10;;;23.90;99.90;;;;;;4955414;29;20410;-55
2022/08/01 06:25:55;;;;;;;4.65;3.88;;;23.90;99.90;;;;;;4955045;29;20058;-52
2022/08/01 06:28:22;;;;;;;5.03;3.67;;;23.90;99.90;;;;;;4955164;29;20086;-55
2022/08/01 06:30:47;;;;;;;5.50;3.65;;;23.80;99.90;;;;;;4956418;29;20118;-50
2022/08/01 06:33:13;;;;;;;12.77;4.20;;;24.00;99.90;;;;;;4956306;29;20111;-52
2022/08/01 06:35:38;;;;;;;4.65;4.05;;;24.00;99.90;;;;;;4955704;29;20112;-53
2022/08/01 06:38:04;;;;;;;4.70;4.15;;;24.00;99.90;;;;;;4956119;29;20065;-54
2022/08/01 06:40:30;;;;;;;7.10;4.10;;;24.10;99.90;;;;;;4956015;29;20082;-54
2022/08/01 06:42:55;;;;;;;5.00;3.50;;;24.10;99.90;;;;;;4956017;29;20031;-52
2022/08/01 06:45:25;;;;;;;7.50;3.90;;;24.10;99.90;;;;;;4971039;28;20031;-54
2022/08/01 06:47:51;;;;;;;5.57;3.72;;;24.10;99.90;;;;;;4955057;29;20027;-54
2022/08/01 06:50:17;;;;;;;6.25;3.88;;;24.10;99.90;;;;;;4970619;28;20035;-54
2022/08/01 06:52:42;;;;;;;5.90;3.83;;;24.10;99.90;;;;;;4956018;29;20030;-52
2022/08/01 06:55:08;;;;;;;6.00;4.10;;;24.10;99.90;;;;;;4955727;29;20082;-56
2022/08/01 06:57:34;;;;;;;4.28;3.88;;;24.00;99.90;;;;;;4955648;29;20098;-50
2022/08/01 07:00:08;;;;;;;5.00;4.15;;;24.00;99.90;;;;;;4954659;29;20511;-56
2022/08/01 07:02:36;;;;;;;6.93;4.82;;;24.00;99.90;;;;;;4955567;29;20025;-51
2022/08/01 07:05:03;;;;;;;7.22;4.18;;;24.00;99.90;;;;;;4954375;29;20032;-57
2022/08/01 07:07:29;;;;;;;6.25;3.97;;;24.00;99.90;;;;;;4955042;28;20070;-52
2022/08/01 07:09:55;;;;;;;4.95;4.18;;;24.10;99.90;;;;;;4955432;29;20023;-55
2022/08/01 07:12:21;;;;;;;5.03;4.07;;;24.10;99.90;;;;;;4955547;29;20058;-57
2022/08/01 07:15:26;;;;;;;6.57;4.03;;;24.10;99.90;;;;;;4955635;29;20106;-55
2022/08/01 07:17:52;;;;;;;4.60;4.00;;;24.30;99.90;;;;;;4954081;28;20027;-52
2022/08/01 07:20:19;;;;;;;5.32;3.78;;;24.40;99.90;;;;;;4954096;29;20030;-54
2022/08/01 07:22:44;;;;;;;5.57;3.97;;;24.50;99.90;;;;;;4954192;29;20024;-58
2022/08/01 07:25:10;;;;;;;6.35;4.88;;;24.70;99.90;;;;;;4955359;29;20037;-58
2022/08/01 07:27:36;;;;;;;6.70;4.10;;;24.80;99.90;;;;;;4954135;28;20386;-58
2022/08/01 07:30:03;;;;;;;7.05;3.88;;;25.00;99.90;;;;;;4955272;29;20038;-49
2022/08/01 07:32:34;;;;;;;6.20;4.38;;;25.00;99.90;;;;;;4954330;29;20032;-55
2022/08/01 07:35:00;;;;;;;9.13;4.05;;;25.00;99.90;;;;;;4955556;29;20386;-58
2022/08/01 07:37:26;;;;;;;5.80;4.75;;;25.10;99.90;;;;;;4954857;29;20117;-52
2022/08/01 07:39:52;;;;;;;6.63;4.85;;;25.10;99.90;;;;;;4955067;29;20107;-59
2022/08/01 07:42:18;;;;;;;6.55;4.68;;;25.20;99.90;;;;;;4953951;29;20095;-60
2022/08/01 07:44:43;;;;;;;5.47;4.40;;;25.10;99.90;;;;;;4955135;29;20501;-57
2022/08/01 07:47:09;;;;;;;6.05;5.28;;;25.20;99.90;;;;;;4953512;29;20023;-60
2022/08/01 07:49:35;;;;;;;7.35;4.78;;;25.30;99.90;;;;;;4953723;29;20537;-60
2022/08/01 07:52:01;;;;;;;4.93;3.88;;;25.40;99.90;;;;;;4955204;28;20024;-60
2022/08/01 07:54:27;;;;;;;8.77;4.55;;;25.60;99.90;;;;;;4955444;28;20055;-59
2022/08/01 07:56:54;;;;;;;5.15;4.07;;;26.20;99.90;;;;;;4954173;29;20074;-58
2022/08/01 07:59:22;;;;;;;4.60;4.18;;;27.40;99.90;;;;;;4953873;28;20055;-58
2022/08/01 08:01:51;;;;;;;6.47;4.85;;;28.20;99.90;;;;;;4955062;28;20025;-58
2022/08/01 08:04:17;;;;;;;5.47;3.88;;;28.60;99.90;;;;;;4953759;28;20027;-58
2022/08/01 08:06:44;;;;;;;5.63;4.40;;;28.80;99.90;;;;;;4954013;29;20031;-58
2022/08/01 08:09:10;;;;;;;10.32;6.25;;;28.90;99.90;;;;;;4954905;28;20033;-58
2022/08/01 08:11:36;;;;;;;4.75;4.00;;;29.30;99.90;;;;;;4954967;28;20019;-56
2022/08/01 08:14:02;;;;;;;4.93;4.22;;;29.70;99.90;;;;;;4954524;29;20070;-58
2022/08/01 08:16:28;;;;;;;5.97;3.95;;;29.80;99.90;;;;;;4953681;29;20032;-60
2022/08/01 08:18:54;;;;;;;8.32;4.47;;;29.80;99.90;;;;;;4955780;28;20035;-59
2022/08/01 08:21:19;;;;;;;8.27;4.70;;;29.60;99.90;;;;;;4958750;28;20102;-55
2022/08/01 08:26:29;;;;;;;6.85;4.72;;;29.00;99.90;;;;;;4958705;29;20034;-58
2022/08/01 08:28:55;;;;;;;5.90;4.90;;;28.60;99.90;;;;;;4957768;29;20031;-61
2022/08/01 08:31:20;;;;;;;6.68;4.70;;;28.30;99.90;;;;;;4958686;28;20027;-61
2022/08/01 08:33:46;;;;;;;6.00;4.75;;;28.20;99.90;;;;;;4957389;29;20118;-61
2022/08/01 08:36:14;;;;;;;7.88;5.55;;;28.10;99.90;;;;;;4958298;28;20050;-59
2022/08/01 08:38:39;;;;;;;5.45;4.95;;;28.00;99.90;;;;;;4956830;29;20039;-59
2022/08/01 08:41:05;;;;;;;4.65;4.22;;;27.70;99.90;;;;;;4958229;28;20024;-57
2022/08/01 08:43:31;;;;;;;6.03;4.80;;;27.60;99.90;;;;;;4958395;28;20054;-62
2022/08/01 08:45:57;;;;;;;5.32;4.47;;;27.80;99.90;;;;;;4956953;29;20023;-61
2022/08/01 08:48:23;;;;;;;5.88;4.97;;;27.90;99.90;;;;;;4956790;28;20046;-60
2022/08/01 08:50:50;;;;;;;6.80;4.72;;;28.10;99.90;;;;;;4957028;29;20138;-59
2022/08/01 08:53:17;;;;;;;9.52;6.03;;;28.30;99.90;;;;;;4956681;29;20119;-61
2022/08/01 08:55:43;;;;;;;5.40;4.70;;;28.30;99.90;;;;;;4956691;29;20086;-58
2022/08/01 08:58:12;;;;;;;5.55;4.97;;;28.70;99.90;;;;;;4956519;29;20031;-59
2022/08/01 09:00:40;;;;;;;5.97;4.35;;;29.00;99.90;;;;;;4958109;28;20450;-59
2022/08/01 09:03:06;;;;;;;5.68;4.10;;;29.50;99.90;;;;;;4957356;29;20047;-57
2022/08/01 09:05:31;;;;;;;5.57;3.83;;;31.10;99.90;;;;;;4956930;28;20055;-58
2022/08/01 09:07:57;;;;;;;3.50;3.20;;;32.90;99.90;;;;;;4957571;28;20028;-58
2022/08/01 09:10:23;;;;;;;4.40;4.00;;;34.60;99.90;;;;;;4956795;29;20026;-57
2022/08/01 09:16:17;;;;;;;5.32;4.05;;;35.80;94.90;;;;;;4957819;29;20096;-60
2022/08/01 09:18:44;;;;;;;5.10;4.03;;;35.60;92.10;;;;;;4956401;29;20474;-62
2022/08/01 09:21:19;;;;;;;4.55;4.10;;;34.80;92.50;;;;;;4957507;28;20102;-62
2022/08/01 09:23:50;;;;;;;4.72;3.97;;;34.00;92.90;;;;;;4957101;29;20051;-60
2022/08/01 09:26:19;;;;;;;4.72;3.47;;;33.20;93.90;;;;;;4956440;29;20110;-59
2022/08/01 09:28:46;;;;;;;4.85;2.80;;;34.30;92.90;;;;;;4955939;29;20390;-59
2022/08/01 09:31:17;;;;;;;3.53;3.08;;;36.00;89.90;;;;;;4955235;28;20027;-62
2022/08/01 09:33:54;;;;;;;4.82;3.05;;;37.70;85.40;;;;;;4957098;28;20031;-60
2022/08/01 09:36:21;;;;;;;3.47;2.75;;;39.10;77.30;;;;;;4957462;28;20033;-62
2022/08/01 09:38:48;;;;;;;4.05;3.05;;;40.10;72.60;;;;;;4957205;28;20027;-63
2022/08/01 09:41:14;;;;;;;3.13;2.83;;;40.90;69.20;;;;;;4957088;28;20031;-58
2022/08/01 09:43:47;;;;;;;3.33;3.05;;;41.40;67.60;;;;;;4955833;29;20023;-54
2022/08/01 09:46:12;;;;;;;4.15;3.30;;;41.90;64.60;;;;;;4957106;28;20024;-60
2022/08/01 09:48:39;;;;;;;3.42;3.13;;;41.70;63.60;;;;;;4955760;29;20039;-60
2022/08/01 09:51:06;;;;;;;2.90;2.70;;;41.00;63.50;;;;;;4956863;28;20035;-60
2022/08/01 09:53:45;;;;;;;3.38;3.08;;;41.40;63.00;;;;;;4957166;28;20019;-62
2022/08/01 09:56:11;;;;;;;3.42;3.13;;;41.20;62.00;;;;;;4956716;28;20532;-63
2022/08/01 09:58:49;;;;;;;3.25;2.95;;;41.70;61.80;;;;;;4955664;29;20032;-62
2022/08/01 10:01:14;;;;;;;3.00;2.70;;;41.30;61.20;;;;;;4955500;29;20023;-60
2022/08/01 10:03:40;;;;;;;3.30;3.00;;;41.70;61.20;;;;;;4956617;28;20032;-59
2022/08/01 10:06:21;;;;;;;4.53;2.92;;;41.10;60.50;;;;;;4956611;28;20031;-61
2022/08/01 10:08:48;;;;;;;3.50;3.20;;;39.70;62.40;;;;;;4955213;28;20082;-61
2022/08/01 10:11:14;;;;;;;3.60;2.80;;;39.30;63.40;;;;;;4955305;29;20031;-63
2022/08/01 10:13:40;;;;;;;3.10;2.83;;;39.50;62.00;;;;;;4955667;29;20212;-62
2022/08/01 10:16:06;;;;;;;3.88;2.92;;;38.90;63.90;;;;;;4955336;29;20031;-59
2022/08/01 10:18:36;;;;;;;3.25;3.05;;;38.30;64.00;;;;;;4955561;29;20031;-61
2022/08/01 10:21:03;;;;;;;4.87;3.27;;;36.80;66.10;;;;;;4956606;28;20027;-59
2022/08/01 10:23:34;;;;;;;4.93;3.13;;;35.70;67.40;;;;;;4955291;29;20049;-58
2022/08/01 10:26:01;;;;;;;4.70;3.55;;;35.40;68.50;;;;;;4956334;28;20505;-56
2022/08/01 10:28:30;;;;;;;3.55;3.05;;;35.80;67.20;;;;;;4955432;28;20023;-57
2022/08/01 10:30:57;;;;;;;3.65;3.17;;;36.30;66.80;;;;;;4954997;29;20035;-57
2022/08/01 10:33:23;;;;;;;5.80;3.05;;;37.10;65.40;;;;;;4955691;29;20023;-59
2022/08/01 10:35:50;;;;;;;3.25;2.92;;;37.60;65.10;;;;;;4956034;28;20494;-60
2022/08/01 10:38:17;;;;;;;3.58;3.28;;;37.90;65.10;;;;;;4955952;28;20057;-60
2022/08/01 10:40:43;;;;;;;3.35;3.05;;;38.00;64.10;;;;;;4954644;28;20019;-59
2022/08/01 10:43:17;;;;;;;3.13;2.80;;;37.40;65.00;;;;;;4954141;28;20027;-60
2022/08/01 10:45:43;;;;;;;4.25;2.80;;;36.70;66.60;;;;;;4955979;28;20023;-60
2022/08/01 10:48:20;;;;;;;3.47;3.03;;;36.10;65.50;;;;;;4954618;28;20027;-60
2022/08/01 10:50:52;;;;;;;4.90;3.13;;;35.50;66.20;;;;;;4956085;28;20027;-60
2022/08/01 10:53:24;;;;;;;4.18;3.75;;;34.90;67.60;;;;;;4954478;29;20445;-60
2022/08/01 10:55:55;;;;;;;3.53;3.22;;;34.70;68.20;;;;;;4954950;29;20027;-60
2022/08/01 10:58:37;;;;;;;4.13;3.72;;;34.50;69.10;;;;;;4954409;29;20065;-60
2022/08/01 11:01:28;;;;;;;4.10;3.72;;;34.50;69.80;;;;;;4954508;29;20027;-60
2022/08/01 11:03:57;;;;;;;3.80;3.50;;;34.20;70.00;;;;;;4955772;28;20026;-60
2022/08/01 11:06:26;;;;;;;4.13;3.40;;;34.00;70.70;;;;;;4954303;29;20030;-60
2022/08/01 11:08:54;;;;;;;3.85;3.50;;;34.10;70.40;;;;;;4954528;28;20063;-60
2022/08/01 11:11:20;;;;;;;5.22;3.60;;;33.80;71.30;;;;;;4954612;29;20032;-60
2022/08/01 11:14:12;;;;;;;3.55;3.20;;;33.70;70.60;;;;;;4954324;28;20031;-60
2022/08/01 11:16:40;;;;;;;3.70;3.40;;;33.50;71.20;;;;;;4955802;28;20023;-60
2022/08/01 11:19:08;;;;;;;5.22;3.40;;;33.30;71.70;;;;;;4954033;28;20033;-60
2022/08/01 11:21:52;;;;;;;4.32;3.75;;;33.10;71.30;;;;;;4955639;28;20015;-60
2022/08/01 11:24:45;;;;;;;3.88;3.25;;;32.90;71.60;;;;;;4955635;28;20110;-59
2022/08/01 11:27:40;;;;;;;4.35;3.95;;;32.80;72.00;;;;;;4954525;29;20031;-60
2022/08/01 11:30:08;;;;;;;5.82;3.40;;;32.70;72.50;;;;;;4955181;28;20055;-60
2022/08/01 11:32:53;;;;;;;4.65;3.80;;;32.60;72.80;;;;;;4954431;29;20102;-60
2022/08/01 11:35:23;;;;;;;3.75;3.03;;;32.50;73.90;;;;;;4954138;29;20034;-60
2022/08/01 11:37:51;;;;;;;4.70;2.85;;;32.20;72.70;;;;;;4954069;29;20092;-60
2022/08/01 11:40:23;;;;;;;3.67;3.38;;;31.90;73.00;;;;;;4953878;29;20035;-58
2022/08/01 11:42:50;;;;;;;3.65;2.95;;;31.80;73.40;;;;;;4955205;28;20042;-59
2022/08/01 11:45:16;;;;;;;3.60;2.80;;;31.60;73.80;;;;;;4955272;28;20028;-56
2022/08/01 11:47:49;;;;;;;3.30;3.00;;;31.40;74.80;;;;;;4954031;29;20074;-58
2022/08/01 11:50:35;;;;;;;3.63;3.25;;;31.20;74.20;;;;;;4953932;29;20039;-59
2022/08/01 11:53:03;;;;;;;2.95;2.75;;;31.20;75.00;;;;;;4956124;28;20204;-59
2022/08/01 11:55:29;;;;;;;4.05;2.92;;;31.10;76.20;;;;;;4957930;29;20098;-60
2022/08/01 11:58:06;;;;;;;3.35;3.00;;;31.10;75.70;;;;;;4957558;29;20024;-59
2022/08/01 12:00:32;;;;;;;3.05;2.78;;;31.20;75.40;;;;;;4958365;28;20078;-58
2022/08/01 12:03:06;;;;;;;4.30;3.00;;;31.30;74.80;;;;;;4958926;28;20057;-58
2022/08/01 12:05:33;;;;;;;3.00;2.63;;;31.30;74.00;;;;;;4958227;29;20106;-60
2022/08/01 12:08:00;;;;;;;3.58;2.47;;;31.20;74.00;;;;;;4958051;29;20087;-59
2022/08/01 12:10:31;;;;;;;2.95;2.58;;;31.20;73.80;;;;;;4958926;28;20023;-59
2022/08/01 12:13:01;;;;;;;3.17;2.72;;;30.90;74.90;;;;;;4957540;29;20454;-58
2022/08/01 12:15:33;;;;;;;4.15;3.08;;;30.90;74.70;;;;;;4959019;28;20019;-60
2022/08/01 12:18:01;;;;;;;9.77;3.30;;;30.90;75.10;;;;;;4958176;29;20019;-59
2022/08/01 12:20:32;;;;;;;6.85;3.45;;;30.80;76.00;;;;;;4957714;28;20020;-59
2022/08/01 12:23:01;;;;;;;4.38;3.17;;;30.60;76.20;;;;;;4958899;28;20074;-60
2022/08/01 12:25:27;;;;;;;2.70;2.50;;;30.60;74.70;;;;;;4957263;29;20051;-60
2022/08/01 12:27:53;;;;;;;3.30;2.45;;;30.60;75.00;;;;;;4957508;29;20054;-60
2022/08/01 12:30:24;;;;;;;3.40;2.42;;;30.60;75.70;;;;;;4958528;28;20106;-56
2022/08/01 12:32:51;;;;;;;5.80;2.40;;;30.50;75.40;;;;;;4957134;29;20082;-58
2022/08/01 12:35:22;;;;;;;4.13;2.17;;;30.50;75.80;;;;;;4957385;29;20034;-60
2022/08/01 12:37:49;;;;;;;2.33;2.10;;;30.60;75.40;;;;;;4957238;29;20441;-56
2022/08/01 12:40:19;;;;;;;4.28;2.40;;;30.70;75.50;;;;;;4958133;28;20470;-59
2022/08/01 12:42:47;;;;;;;2.45;2.08;;;30.70;75.40;;;;;;4957277;28;20031;-59
2022/08/01 12:45:17;;;;;;;2.47;2.08;;;30.60;75.40;;;;;;4957144;29;20026;-59
2022/08/01 12:47:43;;;;;;;2.75;2.05;;;30.60;74.80;;;;;;4958151;28;20047;-58
2022/08/01 12:50:16;;;;;;;2.05;1.77;;;30.70;74.60;;;;;;4956954;29;20043;-58
2022/08/01 12:52:42;;;;;;;3.40;2.15;;;30.70;73.50;;;;;;4958662;28;20079;-60
2022/08/01 12:55:13;;;;;;;2.35;2.15;;;30.70;73.90;;;;;;4957988;28;20020;-58
2022/08/01 12:57:40;;;;;;;;;;;30.70;74.30;;;;;;4958750;28;20023;-59
2022/08/01 13:00:12;;;;;;;3.22;2.08;;;30.80;75.00;;;;;;4957880;28;19918;-56
2022/08/01 13:02:39;;;;;;;2.22;2.00;;;30.70;74.50;;;;;;4957829;28;20020;-59
2022/08/01 13:05:06;;;;;;;2.60;2.20;;;30.70;74.20;;;;;;4956698;28;20019;-59
2022/08/01 13:07:47;;;;;;;2.28;2.03;;;30.60;74.70;;;;;;4956532;29;20062;-60